Time;durP1;ratioP1;P1;durP2;ratioP2;P2;SDS_P1;SDS_P2;PMS_P1;PMS_P2;Temp;Humidity;BMP_temperature;BMP_pressure;BME280_temperature;BME280_humidity;BME280_pressure;Samples;Min_cycle;Max_cycle;Signal;HPM_P1;HPM_P2
2021/06/15 00:00:25;;;;;;;5.22;2.50;;;20.30;65.60;;;;;;3578963;40;20102;-67
2021/06/15 00:02:51;;;;;;;3.45;2.65;;;20.20;65.60;;;;;;3578375;40;20033;-67
2021/06/15 00:05:18;;;;;;;4.15;2.88;;;20.20;65.70;;;;;;3577234;40;20030;-68
2021/06/15 00:07:44;;;;;;;3.42;2.60;;;20.20;65.80;;;;;;3579158;40;20454;-68
2021/06/15 00:10:23;;;;;;;3.83;2.78;;;20.20;65.70;;;;;;3577711;40;20021;-68
2021/06/15 00:12:50;;;;;;;4.53;2.90;;;20.20;65.80;;;;;;3577418;40;20025;-68
2021/06/15 00:15:17;;;;;;;3.92;2.67;;;20.20;66.00;;;;;;3573067;40;20052;-68
2021/06/15 00:17:43;;;;;;;4.38;2.72;;;20.20;65.90;;;;;;3579941;40;20021;-67
2021/06/15 00:20:10;;;;;;;3.40;3.00;;;20.10;66.30;;;;;;3577654;40;20049;-68
2021/06/15 00:22:36;;;;;;;4.80;3.10;;;20.10;66.50;;;;;;3578554;40;20157;-68
2021/06/15 00:25:03;;;;;;;5.88;2.50;;;20.10;66.10;;;;;;3576214;40;20062;-67
2021/06/15 00:27:30;;;;;;;4.55;2.70;;;20.10;66.50;;;;;;3577424;40;20033;-68
2021/06/15 00:29:56;;;;;;;4.93;2.88;;;20.10;66.60;;;;;;3578292;40;20024;-67
2021/06/15 00:32:22;;;;;;;3.95;2.50;;;20.00;66.50;;;;;;3578416;40;20916;-68
2021/06/15 00:34:48;;;;;;;4.20;2.67;;;20.00;66.60;;;;;;3573853;40;20024;-68
2021/06/15 00:37:13;;;;;;;5.57;2.83;;;20.00;66.80;;;;;;3578242;40;20186;-68
2021/06/15 00:39:39;;;;;;;4.78;2.95;;;20.00;66.80;;;;;;3578391;40;20066;-68
2021/06/15 00:42:06;;;;;;;5.28;2.90;;;20.00;66.90;;;;;;3578269;40;20051;-68
2021/06/15 00:44:33;;;;;;;7.72;2.95;;;19.90;66.80;;;;;;3572931;40;20032;-68
2021/06/15 00:47:00;;;;;;;4.22;2.85;;;19.90;66.90;;;;;;3576062;40;20041;-68
2021/06/15 00:49:31;;;;;;;4.30;2.70;;;19.90;66.90;;;;;;3576431;40;20749;-68
2021/06/15 00:51:58;;;;;;;4.88;2.80;;;19.90;66.80;;;;;;3573595;40;20088;-68
2021/06/15 00:54:24;;;;;;;5.30;2.70;;;19.80;66.20;;;;;;3576389;40;20028;-68
2021/06/15 00:56:51;;;;;;;3.72;2.50;;;19.70;66.10;;;;;;3569769;40;20044;-68
2021/06/15 00:59:17;;;;;;;4.85;2.72;;;19.70;66.40;;;;;;3578823;40;20437;-68
2021/06/15 01:01:45;;;;;;;5.35;3.00;;;19.70;66.60;;;;;;3579243;40;20036;-68
2021/06/15 01:04:12;;;;;;;3.60;2.78;;;19.60;66.60;;;;;;3574806;40;20041;-68
2021/06/15 01:06:53;;;;;;;4.05;2.67;;;19.60;67.00;;;;;;3570045;40;20041;-68
2021/06/15 01:09:44;;;;;;;5.45;2.67;;;19.50;66.80;;;;;;3570372;40;20454;-68
2021/06/15 01:12:35;;;;;;;4.65;2.80;;;19.50;67.00;;;;;;3565915;40;20763;-68
2021/06/15 01:15:01;;;;;;;5.50;2.80;;;19.50;67.40;;;;;;3577395;40;20044;-68
2021/06/15 01:17:38;;;;;;;4.18;2.92;;;19.40;67.20;;;;;;3570163;40;20530;-68
2021/06/15 01:20:26;;;;;;;4.78;2.90;;;19.40;67.50;;;;;;3569516;40;20134;-67
2021/06/15 01:23:27;;;;;;;3.42;2.70;;;19.40;67.30;;;;;;3567814;40;20412;-68
2021/06/15 01:26:14;;;;;;;4.13;2.88;;;19.30;67.20;;;;;;3577131;40;20033;-69
2021/06/15 01:28:43;;;;;;;3.55;2.75;;;19.30;67.40;;;;;;3578589;40;20341;-68
2021/06/15 01:31:38;;;;;;;6.55;2.88;;;19.30;67.40;;;;;;3575946;40;20056;-68
2021/06/15 01:34:33;;;;;;;5.88;3.13;;;19.20;67.50;;;;;;3568467;40;20104;-68
2021/06/15 01:37:17;;;;;;;5.95;3.38;;;19.20;68.20;;;;;;3576922;40;20064;-68
2021/06/15 01:39:55;;;;;;;4.35;2.95;;;19.10;68.40;;;;;;3562998;40;20498;-68
2021/06/15 01:42:40;;;;;;;4.10;3.03;;;19.10;68.50;;;;;;3561307;40;20052;-68
2021/06/15 01:45:18;;;;;;;5.25;3.55;;;19.00;68.50;;;;;;3568077;40;20041;-67
2021/06/15 01:48:06;;;;;;;3.90;2.67;;;18.90;68.80;;;;;;3578952;40;20036;-66
2021/06/15 01:50:38;;;;;;;4.28;3.13;;;18.90;69.20;;;;;;3568215;40;20126;-68
2021/06/15 01:53:07;;;;;;;5.05;2.97;;;18.90;69.30;;;;;;3563672;40;20720;-68
2021/06/15 01:55:34;;;;;;;5.55;3.03;;;18.90;69.60;;;;;;3561773;40;20631;-68
2021/06/15 01:58:02;;;;;;;5.90;3.13;;;18.90;69.40;;;;;;3569325;40;20073;-67
2021/06/15 02:00:30;;;;;;;4.55;3.15;;;18.90;69.70;;;;;;3569289;40;20048;-68
2021/06/15 02:03:02;;;;;;;5.50;3.40;;;18.90;70.00;;;;;;3578640;40;20402;-67
2021/06/15 02:05:40;;;;;;;6.15;3.22;;;18.90;70.10;;;;;;3577745;40;20072;-68
2021/06/15 02:08:14;;;;;;;6.77;3.20;;;18.90;70.20;;;;;;3568787;40;20037;-67
2021/06/15 02:10:42;;;;;;;5.32;3.22;;;18.90;70.50;;;;;;3560928;40;20282;-67
2021/06/15 02:13:29;;;;;;;5.72;3.45;;;18.90;71.40;;;;;;3578361;40;20141;-67
2021/06/15 02:16:09;;;;;;;4.65;2.92;;;18.90;70.70;;;;;;3562826;40;20121;-67
2021/06/15 02:19:17;;;;;;;5.07;3.40;;;18.90;70.20;;;;;;3560031;40;20054;-67
2021/06/15 02:21:56;;;;;;;5.78;3.28;;;18.90;69.60;;;;;;3569044;40;20121;-67
2021/06/15 02:24:41;;;;;;;5.80;3.10;;;18.90;69.50;;;;;;3577054;40;20032;-67
2021/06/15 02:27:10;;;;;;;5.57;3.35;;;18.80;69.50;;;;;;3577903;40;20037;-67
2021/06/15 02:29:38;;;;;;;6.97;3.20;;;18.80;69.60;;;;;;3568764;40;20495;-67
2021/06/15 02:32:06;;;;;;;4.93;3.58;;;18.70;69.70;;;;;;3561258;40;20870;-67
2021/06/15 02:34:35;;;;;;;4.78;3.58;;;18.70;69.70;;;;;;3573797;40;20032;-67
2021/06/15 02:37:07;;;;;;;4.90;3.55;;;18.60;69.90;;;;;;3569979;40;20044;-67
2021/06/15 02:39:35;;;;;;;4.15;3.30;;;18.50;70.40;;;;;;3580092;40;20064;-67
2021/06/15 02:42:07;;;;;;;5.20;3.40;;;18.50;70.70;;;;;;3579463;40;20076;-67
2021/06/15 02:44:37;;;;;;;5.22;3.17;;;18.40;71.10;;;;;;3567038;40;20641;-67
2021/06/15 02:47:07;;;;;;;7.72;3.42;;;18.40;71.60;;;;;;3578062;40;20629;-67
2021/06/15 02:49:50;;;;;;;5.88;3.45;;;18.30;71.80;;;;;;3569877;40;20060;-67
2021/06/15 02:52:39;;;;;;;4.68;3.65;;;18.30;71.60;;;;;;3579514;40;20705;-67
2021/06/15 02:55:33;;;;;;;5.30;3.28;;;18.40;71.80;;;;;;3559023;40;20052;-67
2021/06/15 02:58:00;;;;;;;3.97;3.40;;;18.40;71.40;;;;;;3579833;40;20052;-67
2021/06/15 03:00:26;;;;;;;5.60;3.97;;;18.40;71.00;;;;;;3569875;40;20353;-67
2021/06/15 03:02:53;;;;;;;5.70;3.55;;;18.40;70.80;;;;;;3570046;40;20398;-67
2021/06/15 03:05:21;;;;;;;5.13;3.40;;;18.40;71.00;;;;;;3562528;40;20032;-67
2021/06/15 03:07:51;;;;;;;5.97;4.00;;;18.40;71.00;;;;;;3579665;40;20036;-67
2021/06/15 03:10:19;;;;;;;4.32;3.17;;;18.30;71.30;;;;;;3569492;40;20036;-67
2021/06/15 03:12:55;;;;;;;5.68;3.20;;;18.30;71.70;;;;;;3579438;40;20045;-67
2021/06/15 03:15:32;;;;;;;5.63;3.58;;;18.20;71.90;;;;;;3575610;40;20118;-68
2021/06/15 03:18:13;;;;;;;4.88;3.45;;;18.20;72.10;;;;;;3579420;40;20165;-68
2021/06/15 03:20:40;;;;;;;5.03;3.22;;;18.20;72.20;;;;;;3578639;40;20154;-68
2021/06/15 03:23:17;;;;;;;6.28;3.67;;;18.20;72.30;;;;;;3578901;40;20655;-68
2021/06/15 03:25:44;;;;;;;5.20;3.60;;;18.10;72.60;;;;;;3552911;40;20032;-68
2021/06/15 03:28:24;;;;;;;5.50;3.72;;;18.10;72.70;;;;;;3576182;40;20037;-68
2021/06/15 03:30:53;;;;;;;4.57;3.53;;;18.10;72.90;;;;;;3577577;40;20045;-68
2021/06/15 03:33:22;;;;;;;4.97;3.35;;;18.10;73.10;;;;;;3568973;40;20051;-68
2021/06/15 03:35:56;;;;;;;4.55;3.53;;;18.10;73.40;;;;;;3569238;40;20040;-65
2021/06/15 03:38:28;;;;;;;5.25;3.55;;;18.00;73.40;;;;;;3578596;40;20602;-68
2021/06/15 03:40:58;;;;;;;4.25;3.35;;;18.00;73.70;;;;;;3565314;40;20081;-68
2021/06/15 03:43:27;;;;;;;5.15;3.15;;;18.00;73.80;;;;;;3578677;40;20032;-68
2021/06/15 03:46:02;;;;;;;5.88;3.47;;;18.10;73.80;;;;;;3575564;40;20165;-68
2021/06/15 03:48:30;;;;;;;5.00;3.80;;;18.10;73.60;;;;;;3578952;40;20029;-68
2021/06/15 03:51:00;;;;;;;5.80;3.67;;;18.00;73.40;;;;;;3578154;40;20031;-66
2021/06/15 03:53:29;;;;;;;7.57;4.30;;;18.10;73.80;;;;;;3576710;40;20047;-67
2021/06/15 03:55:57;;;;;;;6.53;3.90;;;18.10;73.30;;;;;;3575111;40;20021;-67
2021/06/15 03:58:23;;;;;;;4.53;3.55;;;18.20;73.00;;;;;;3578261;40;20031;-66
2021/06/15 04:00:50;;;;;;;6.78;3.33;;;18.40;72.30;;;;;;3578953;40;20044;-67
2021/06/15 04:03:17;;;;;;;5.82;3.63;;;18.60;72.30;;;;;;3579070;40;20033;-67
2021/06/15 04:05:46;;;;;;;5.93;3.17;;;18.80;71.50;;;;;;3571612;40;20031;-67
2021/06/15 04:08:16;;;;;;;7.25;4.22;;;18.90;71.00;;;;;;3577401;40;20448;-67
2021/06/15 04:10:50;;;;;;;8.57;4.63;;;19.00;70.70;;;;;;3578976;40;20032;-67
2021/06/15 04:13:18;;;;;;;5.18;3.78;;;19.20;70.00;;;;;;3579394;40;20162;-66
2021/06/15 04:15:47;;;;;;;6.03;3.75;;;19.30;69.50;;;;;;3575862;40;20068;-67
2021/06/15 04:18:16;;;;;;;5.75;3.42;;;19.40;68.70;;;;;;3576964;40;20036;-66
2021/06/15 04:20:44;;;;;;;4.30;3.33;;;19.50;68.10;;;;;;3579283;40;20040;-66
2021/06/15 04:23:18;;;;;;;5.13;3.58;;;19.60;68.00;;;;;;3579562;40;20040;-67
2021/06/15 04:25:45;;;;;;;4.57;3.03;;;19.60;68.50;;;;;;3574303;40;20448;-65
2021/06/15 04:28:11;;;;;;;9.00;3.60;;;19.60;68.80;;;;;;3579454;40;20096;-67
2021/06/15 04:30:38;;;;;;;5.43;3.33;;;19.70;69.60;;;;;;3577161;40;20649;-67
2021/06/15 04:33:09;;;;;;;6.75;3.63;;;19.70;69.40;;;;;;3579099;40;20087;-67
2021/06/15 04:35:41;;;;;;;7.78;4.00;;;19.80;69.20;;;;;;3579231;40;20043;-67
2021/06/15 04:38:33;;;;;;;8.77;3.45;;;19.90;69.30;;;;;;3562653;40;20052;-67
2021/06/15 04:41:05;;;;;;;6.05;4.50;;;20.00;69.00;;;;;;3571061;40;20056;-67
2021/06/15 04:43:42;;;;;;;4.82;3.65;;;20.10;68.80;;;;;;3560817;40;20690;-67
2021/06/15 04:46:25;;;;;;;6.00;3.30;;;20.20;68.60;;;;;;3567362;40;20049;-68
2021/06/15 04:49:05;;;;;;;6.30;3.63;;;20.30;68.30;;;;;;3577773;40;21001;-66
2021/06/15 04:51:32;;;;;;;8.05;3.33;;;20.40;67.90;;;;;;3577857;40;20710;-66
2021/06/15 04:54:00;;;;;;;15.15;4.25;;;20.50;68.50;;;;;;3576266;40;20092;-66
2021/06/15 04:56:29;;;;;;;5.97;3.42;;;20.40;68.40;;;;;;3578180;40;20157;-66
2021/06/15 04:59:00;;;;;;;7.25;3.40;;;20.50;68.50;;;;;;3578696;40;20039;-67
2021/06/15 05:01:27;;;;;;;5.40;3.50;;;20.50;69.00;;;;;;3579072;40;20041;-67
2021/06/15 05:03:54;;;;;;;7.20;3.90;;;20.50;68.50;;;;;;3578781;40;20117;-67
2021/06/15 05:06:20;;;;;;;10.10;3.88;;;20.60;68.50;;;;;;3574905;40;20056;-66
2021/06/15 05:08:53;;;;;;;6.70;3.63;;;20.60;68.90;;;;;;3578806;40;20021;-67
2021/06/15 05:11:19;;;;;;;5.90;3.47;;;20.70;68.80;;;;;;3579210;40;20032;-67
2021/06/15 05:13:46;;;;;;;7.47;4.20;;;20.80;68.90;;;;;;3578939;40;20021;-66
2021/06/15 05:16:14;;;;;;;7.45;4.10;;;21.00;67.40;;;;;;3577874;40;20032;-67
2021/06/15 05:18:40;;;;;;;6.68;4.18;;;21.10;66.90;;;;;;3577841;40;20141;-67
2021/06/15 05:21:22;;;;;;;5.53;3.97;;;21.10;66.50;;;;;;3569358;40;20025;-66
2021/06/15 05:24:05;;;;;;;5.57;4.47;;;21.20;67.00;;;;;;3562639;40;20048;-67
2021/06/15 05:26:32;;;;;;;7.15;4.80;;;21.20;66.30;;;;;;3575635;40;20044;-67
2021/06/15 05:28:58;;;;;;;11.45;4.10;;;21.30;65.50;;;;;;3567861;40;20301;-66
2021/06/15 05:31:24;;;;;;;7.47;4.07;;;21.40;65.40;;;;;;3578546;40;20706;-67
2021/06/15 05:33:49;;;;;;;7.93;4.60;;;21.40;65.50;;;;;;3576824;40;20027;-67
2021/06/15 05:36:15;;;;;;;5.57;3.67;;;21.50;64.90;;;;;;3578555;40;20072;-67
2021/06/15 05:38:41;;;;;;;7.38;3.47;;;21.60;64.30;;;;;;3577708;40;20141;-67
2021/06/15 05:41:07;;;;;;;7.80;4.18;;;21.70;64.30;;;;;;3577907;40;20041;-67
2021/06/15 05:43:32;;;;;;;6.68;4.13;;;21.70;64.50;;;;;;3577969;40;20868;-67
2021/06/15 05:45:58;;;;;;;7.55;4.22;;;21.70;64.10;;;;;;3577721;40;20060;-67
2021/06/15 05:48:24;;;;;;;9.63;5.05;;;21.80;64.50;;;;;;3578237;40;20021;-67
2021/06/15 05:50:50;;;;;;;7.15;4.80;;;21.90;64.00;;;;;;3577821;40;20028;-67
2021/06/15 05:53:16;;;;;;;7.22;5.25;;;21.90;63.80;;;;;;3577988;40;20020;-68
2021/06/15 05:55:42;;;;;;;11.68;5.85;;;22.10;63.60;;;;;;3574461;40;20067;-64
2021/06/15 05:58:08;;;;;;;14.25;8.00;;;22.20;63.10;;;;;;3578331;40;20410;-65
2021/06/15 06:00:33;;;;;;;11.13;6.90;;;22.20;63.20;;;;;;3576952;40;20037;-65
2021/06/15 06:02:59;;;;;;;15.05;6.25;;;22.30;62.90;;;;;;3578504;40;20032;-66
2021/06/15 06:08:10;;;;;;;7.45;4.10;;;22.50;61.10;;;;;;3575315;40;20025;-66
2021/06/15 06:10:38;;;;;;;6.97;4.22;;;22.50;62.20;;;;;;3577788;40;20040;-66
2021/06/15 06:13:06;;;;;;;12.70;4.30;;;22.40;62.70;;;;;;3578308;40;20028;-66
2021/06/15 06:15:32;;;;;;;8.90;4.63;;;22.40;62.60;;;;;;3568024;40;20065;-66
2021/06/15 06:18:08;;;;;;;7.53;4.53;;;22.40;61.50;;;;;;3564542;40;20029;-66
2021/06/15 06:20:35;;;;;;;5.93;3.45;;;22.50;61.60;;;;;;3576822;40;20029;-65
2021/06/15 06:23:01;;;;;;;8.15;4.07;;;22.50;62.20;;;;;;3578432;40;20033;-66
2021/06/15 06:25:27;;;;;;;7.60;3.90;;;22.60;61.80;;;;;;3572870;40;20787;-66
2021/06/15 06:27:53;;;;;;;8.35;3.88;;;22.80;61.10;;;;;;3578636;40;20080;-65
2021/06/15 06:30:20;;;;;;;8.75;4.60;;;22.90;60.40;;;;;;3568445;40;20181;-66
2021/06/15 06:32:46;;;;;;;6.32;4.28;;;23.00;60.60;;;;;;3578497;40;20033;-66
2021/06/15 06:35:12;;;;;;;7.90;4.35;;;23.10;60.60;;;;;;3575708;40;20551;-66
2021/06/15 06:37:38;;;;;;;8.63;3.60;;;23.20;59.80;;;;;;3577865;40;20043;-67
2021/06/15 06:40:04;;;;;;;8.77;4.07;;;23.20;59.60;;;;;;3568494;40;20036;-67
2021/06/15 06:42:30;;;;;;;10.77;4.53;;;23.30;60.00;;;;;;3575124;40;20126;-67
2021/06/15 06:44:56;;;;;;;8.65;4.50;;;23.30;59.90;;;;;;3572026;40;20048;-67
2021/06/15 06:47:22;;;;;;;9.32;4.53;;;23.40;59.30;;;;;;3578149;40;20125;-67
2021/06/15 06:49:48;;;;;;;7.93;4.53;;;23.40;59.80;;;;;;3578221;40;20379;-66
2021/06/15 06:52:14;;;;;;;9.90;4.57;;;23.40;59.50;;;;;;3578108;40;20032;-67
2021/06/15 06:54:40;;;;;;;10.00;5.22;;;23.50;59.40;;;;;;3574696;40;20149;-66
2021/06/15 06:57:05;;;;;;;17.02;6.03;;;23.60;59.40;;;;;;3578745;40;20092;-66
2021/06/15 06:59:31;;;;;;;11.45;5.63;;;23.60;58.90;;;;;;3574043;40;20028;-67
2021/06/15 07:01:57;;;;;;;8.13;4.53;;;23.60;60.00;;;;;;3577785;40;20428;-62
2021/06/15 07:04:22;;;;;;;10.98;5.22;;;23.60;59.60;;;;;;3573824;40;20100;-63
2021/06/15 07:06:48;;;;;;;8.98;4.95;;;23.60;59.90;;;;;;3576875;40;20068;-62
2021/06/15 07:09:14;;;;;;;10.63;5.82;;;23.60;60.20;;;;;;3578255;40;20037;-63
2021/06/15 07:11:40;;;;;;;12.02;5.68;;;23.60;59.80;;;;;;3567825;40;20658;-63
2021/06/15 07:14:05;;;;;;;10.57;5.55;;;23.60;60.10;;;;;;3576824;40;20705;-62
2021/06/15 07:16:31;;;;;;;10.07;5.10;;;23.70;59.70;;;;;;3577992;40;20812;-62
2021/06/15 07:18:57;;;;;;;13.05;4.85;;;23.80;59.50;;;;;;3577346;40;20029;-62
2021/06/15 07:21:22;;;;;;;12.48;4.93;;;23.90;59.50;;;;;;3577880;40;20067;-62
2021/06/15 07:23:48;;;;;;;8.30;4.45;;;23.90;59.20;;;;;;3579647;40;20330;-62
2021/06/15 07:26:14;;;;;;;10.73;4.53;;;24.00;58.90;;;;;;3575665;40;20048;-62
2021/06/15 07:28:40;;;;;;;8.90;4.40;;;24.00;59.10;;;;;;3579365;40;20424;-62
2021/06/15 07:31:05;;;;;;;7.47;4.68;;;24.10;58.90;;;;;;3579392;40;20095;-63
2021/06/15 07:33:31;;;;;;;7.28;4.38;;;24.10;58.30;;;;;;3579274;40;20039;-63
2021/06/15 07:35:57;;;;;;;6.72;4.35;;;24.20;58.70;;;;;;3577552;40;20674;-63
2021/06/15 07:38:22;;;;;;;29.13;13.35;;;24.20;58.50;;;;;;3579471;40;20036;-63
2021/06/15 07:40:48;;;;;;;10.35;5.13;;;24.30;58.10;;;;;;3578652;40;20032;-63
2021/06/15 07:43:16;;;;;;;11.02;4.75;;;24.40;58.00;;;;;;3578004;40;20033;-63
2021/06/15 07:45:42;;;;;;;13.30;5.30;;;24.50;57.40;;;;;;3563865;40;20711;-63
2021/06/15 07:48:07;;;;;;;9.27;5.00;;;24.70;57.50;;;;;;3561412;40;20047;-63
2021/06/15 07:50:34;;;;;;;6.93;4.25;;;24.90;57.00;;;;;;3578766;40;20060;-63
2021/06/15 07:53:00;;;;;;;9.82;5.53;;;25.00;56.60;;;;;;3569744;40;20029;-63
2021/06/15 07:55:25;;;;;;;8.68;4.68;;;25.20;56.60;;;;;;3576808;40;20049;-63
2021/06/15 07:57:51;;;;;;;11.07;5.30;;;25.20;56.10;;;;;;3578991;40;20055;-64
2021/06/15 08:00:18;;;;;;;8.90;4.88;;;25.20;56.10;;;;;;3578983;40;20040;-63
2021/06/15 08:02:44;;;;;;;7.60;4.57;;;25.10;56.80;;;;;;3579085;40;20052;-63
2021/06/15 08:05:11;;;;;;;7.05;5.00;;;25.10;56.70;;;;;;3574553;40;20036;-63
2021/06/15 08:07:37;;;;;;;7.13;4.53;;;25.10;56.90;;;;;;3579188;40;20033;-63
2021/06/15 08:10:04;;;;;;;9.10;4.72;;;25.10;57.30;;;;;;3579108;40;20033;-64
2021/06/15 08:12:30;;;;;;;8.63;4.28;;;25.10;57.20;;;;;;3578341;40;20032;-63
2021/06/15 08:14:55;;;;;;;5.32;4.00;;;25.00;56.40;;;;;;3567717;40;20038;-63
2021/06/15 08:17:21;;;;;;;7.72;4.30;;;25.10;56.50;;;;;;3578922;40;20028;-63
2021/06/15 08:19:47;;;;;;;6.97;4.45;;;25.10;56.90;;;;;;3578432;40;20020;-62
2021/06/15 08:22:13;;;;;;;7.22;4.40;;;25.10;57.50;;;;;;3578944;40;20033;-63
2021/06/15 08:24:38;;;;;;;8.43;3.90;;;25.10;56.80;;;;;;3573755;40;20872;-63
2021/06/15 08:27:04;;;;;;;12.15;4.25;;;25.10;58.40;;;;;;3579380;40;20130;-62
2021/06/15 08:29:31;;;;;;;8.75;4.28;;;25.10;58.00;;;;;;3578845;40;20329;-62
2021/06/15 08:31:57;;;;;;;7.85;4.20;;;25.10;58.60;;;;;;3578667;40;20137;-62
2021/06/15 08:34:22;;;;;;;12.13;3.88;;;25.10;58.10;;;;;;3567785;40;20037;-62
2021/06/15 08:36:48;;;;;;;7.78;4.20;;;25.20;57.50;;;;;;3578978;40;20029;-62
2021/06/15 08:39:14;;;;;;;8.88;4.35;;;25.10;57.40;;;;;;3575122;40;20025;-62
2021/06/15 08:41:40;;;;;;;8.10;4.40;;;25.10;57.40;;;;;;3566145;40;20045;-62
2021/06/15 08:44:08;;;;;;;7.70;4.25;;;25.10;57.40;;;;;;3576179;40;20761;-62
2021/06/15 08:46:34;;;;;;;6.45;3.83;;;25.10;57.80;;;;;;3576297;40;20080;-62
2021/06/15 08:49:02;;;;;;;8.18;4.40;;;25.10;58.10;;;;;;3574980;40;20417;-63
2021/06/15 08:51:28;;;;;;;9.30;5.53;;;25.20;58.10;;;;;;3568471;40;20025;-63
2021/06/15 08:54:03;;;;;;;18.33;5.38;;;25.30;58.00;;;;;;3577121;40;20033;-63
2021/06/15 08:56:32;;;;;;;9.02;5.03;;;25.30;57.80;;;;;;3578490;40;20032;-62
2021/06/15 08:59:12;;;;;;;9.75;5.47;;;25.40;57.80;;;;;;3577984;40;20740;-63
2021/06/15 09:01:38;;;;;;;15.57;7.80;;;25.40;57.80;;;;;;3577710;40;20032;-63
2021/06/15 09:04:04;;;;;;;13.82;6.00;;;25.50;57.60;;;;;;3577157;40;20020;-63
2021/06/15 09:06:31;;;;;;;17.80;6.50;;;25.60;58.00;;;;;;3563686;40;20052;-63
2021/06/15 09:09:01;;;;;;;15.50;5.50;;;25.50;57.90;;;;;;3569043;40;20095;-63
2021/06/15 09:11:46;;;;;;;18.00;6.32;;;25.60;57.40;;;;;;3578038;40;20040;-63
2021/06/15 09:14:13;;;;;;;12.35;4.97;;;25.60;56.90;;;;;;3575870;40;20601;-63
2021/06/15 09:16:47;;;;;;;6.13;4.18;;;25.60;57.10;;;;;;3569140;40;20052;-63
2021/06/15 09:19:16;;;;;;;11.80;6.00;;;25.60;56.70;;;;;;3577952;40;20712;-65
2021/06/15 09:21:44;;;;;;;7.40;4.43;;;25.60;55.90;;;;;;3578559;40;20267;-61
2021/06/15 09:24:17;;;;;;;9.82;5.30;;;25.60;56.60;;;;;;3575923;40;20025;-62
2021/06/15 09:27:04;;;;;;;19.65;7.45;;;25.60;56.60;;;;;;3576050;40;20393;-67
2021/06/15 09:29:37;;;;;;;12.35;6.30;;;25.60;56.10;;;;;;3577652;40;20065;-64
2021/06/15 09:32:04;;;;;;;8.38;5.57;;;25.70;56.60;;;;;;3568233;40;20080;-64
2021/06/15 09:34:30;;;;;;;13.45;6.78;;;25.70;57.30;;;;;;3573239;40;20032;-65
2021/06/15 09:36:56;;;;;;;11.90;6.05;;;25.80;57.40;;;;;;3578064;40;20499;-64
2021/06/15 09:39:21;;;;;;;9.63;5.15;;;25.90;56.60;;;;;;3577977;40;20047;-64
2021/06/15 09:41:49;;;;;;;9.05;4.82;;;26.00;56.70;;;;;;3577766;40;20426;-62
2021/06/15 09:44:18;;;;;;;9.25;5.35;;;26.00;56.90;;;;;;3566532;40;20888;-63
2021/06/15 09:46:55;;;;;;;10.95;5.57;;;26.10;56.60;;;;;;3579114;40;20125;-63
2021/06/15 09:49:32;;;;;;;10.32;5.93;;;26.20;56.20;;;;;;3578111;40;20039;-63
2021/06/15 09:52:19;;;;;;;11.85;6.78;;;26.10;56.30;;;;;;3577446;40;20079;-63
2021/06/15 09:54:55;;;;;;;9.90;5.88;;;26.20;56.70;;;;;;3573199;40;20099;-63
2021/06/15 09:57:40;;;;;;;10.32;6.22;;;26.20;56.90;;;;;;3579513;40;20052;-63
2021/06/15 10:00:21;;;;;;;13.73;7.43;;;26.20;56.90;;;;;;3577742;40;20824;-63
2021/06/15 10:02:57;;;;;;;11.95;6.32;;;26.20;57.20;;;;;;3578726;40;20040;-63
2021/06/15 10:05:26;;;;;;;13.35;7.55;;;26.10;57.20;;;;;;3576618;40;20047;-64
2021/06/15 10:07:54;;;;;;;13.30;5.63;;;25.90;57.10;;;;;;3579018;40;20032;-64
2021/06/15 10:10:22;;;;;;;12.38;6.22;;;25.70;58.20;;;;;;3578990;40;20025;-64
2021/06/15 10:12:49;;;;;;;12.55;6.05;;;25.60;58.30;;;;;;3579229;40;20106;-63
2021/06/15 10:15:15;;;;;;;11.68;6.13;;;25.40;58.80;;;;;;3573880;40;20043;-63
2021/06/15 10:17:46;;;;;;;10.07;5.40;;;25.40;58.70;;;;;;3578852;40;20025;-64
2021/06/15 10:20:17;;;;;;;7.45;5.15;;;25.30;58.90;;;;;;3578414;40;20035;-64
2021/06/15 10:22:44;;;;;;;8.07;5.30;;;25.40;59.00;;;;;;3578827;40;20040;-64
2021/06/15 10:25:11;;;;;;;8.20;5.18;;;25.40;58.60;;;;;;3573580;40;20074;-64
2021/06/15 10:27:37;;;;;;;10.32;5.55;;;25.50;58.80;;;;;;3577091;40;20051;-64
2021/06/15 10:30:04;;;;;;;8.70;5.50;;;25.50;58.60;;;;;;3578166;40;20091;-69
2021/06/15 10:32:30;;;;;;;12.60;6.00;;;25.50;58.60;;;;;;3578688;40;20079;-69
2021/06/15 10:35:07;;;;;;;11.35;5.38;;;25.40;58.50;;;;;;3571928;40;20069;-65
2021/06/15 10:40:01;;;;;;;11.25;5.43;;;25.40;58.90;;;;;;3576975;40;20709;-65
2021/06/15 10:42:27;;;;;;;10.32;5.32;;;25.40;58.40;;;;;;3576024;40;20412;-65
2021/06/15 10:45:11;;;;;;;11.05;6.18;;;25.50;58.30;;;;;;3578396;40;20125;-65
2021/06/15 10:48:01;;;;;;;11.82;5.07;;;25.50;58.70;;;;;;3578656;40;20033;-65
2021/06/15 10:50:46;;;;;;;7.68;5.60;;;25.50;58.60;;;;;;3563386;40;20036;-65
2021/06/15 10:53:17;;;;;;;10.57;6.35;;;25.50;58.20;;;;;;3565218;40;20502;-64
2021/06/15 10:56:02;;;;;;;14.23;7.07;;;25.50;58.40;;;;;;3572335;40;20774;-64
2021/06/15 10:58:44;;;;;;;12.70;5.85;;;25.40;58.40;;;;;;3575269;40;20021;-61
2021/06/15 11:01:13;;;;;;;8.55;5.60;;;25.30;58.60;;;;;;3580337;40;20029;-62
2021/06/15 11:03:59;;;;;;;8.55;5.90;;;25.20;59.30;;;;;;3580238;40;20519;-63
2021/06/15 11:06:28;;;;;;;12.05;5.30;;;25.20;59.40;;;;;;3554927;40;20048;-62
2021/06/15 11:09:23;;;;;;;10.25;5.20;;;25.10;59.40;;;;;;3554760;40;20765;-64
2021/06/15 11:11:58;;;;;;;7.63;4.80;;;25.10;59.50;;;;;;3576648;40;20048;-64
2021/06/15 11:14:23;;;;;;;6.90;3.87;;;25.10;60.00;;;;;;3574794;40;20059;-64
2021/06/15 11:16:51;;;;;;;6.40;4.88;;;25.20;59.90;;;;;;3579021;40;20029;-64
2021/06/15 11:19:17;;;;;;;10.80;5.25;;;25.20;59.50;;;;;;3577622;40;20081;-63
2021/06/15 11:21:48;;;;;;;13.23;6.95;;;25.30;59.60;;;;;;3578856;40;20478;-63
2021/06/15 11:24:32;;;;;;;6.30;4.95;;;25.40;59.80;;;;;;3578406;40;20057;-63
2021/06/15 11:26:59;;;;;;;8.38;5.40;;;25.50;58.60;;;;;;3579470;40;20059;-63
2021/06/15 11:29:36;;;;;;;9.18;5.38;;;25.60;58.50;;;;;;3579337;40;20025;-63
2021/06/15 11:32:15;;;;;;;7.70;4.97;;;25.70;58.20;;;;;;3580089;40;20153;-63
2021/06/15 11:35:01;;;;;;;8.95;4.20;;;25.70;57.50;;;;;;3570538;40;20794;-63
2021/06/15 11:37:28;;;;;;;8.32;4.28;;;25.80;57.00;;;;;;3577075;40;20050;-63
2021/06/15 11:40:15;;;;;;;8.45;4.97;;;25.80;57.10;;;;;;3580132;40;20397;-63
2021/06/15 11:42:43;;;;;;;5.72;3.70;;;25.70;56.80;;;;;;3579600;40;20027;-64
2021/06/15 11:45:29;;;;;;;7.18;4.28;;;25.70;57.20;;;;;;3574108;40;20017;-63
2021/06/15 11:48:14;;;;;;;6.80;4.25;;;25.80;57.10;;;;;;3570226;40;20501;-63
2021/06/15 11:50:41;;;;;;;9.02;5.00;;;25.80;57.00;;;;;;3568657;40;20036;-61
2021/06/15 11:53:13;;;;;;;8.00;4.88;;;25.80;57.00;;;;;;3579548;40;20036;-63
2021/06/15 11:56:05;;;;;;;7.07;3.95;;;25.80;56.90;;;;;;3577455;40;20041;-63
2021/06/15 11:58:34;;;;;;;5.65;3.92;;;25.70;56.80;;;;;;3577841;40;20037;-64
2021/06/15 12:01:04;;;;;;;6.47;3.83;;;25.80;57.80;;;;;;3579477;40;20942;-64
2021/06/15 12:03:41;;;;;;;7.97;4.40;;;25.70;57.40;;;;;;3579482;40;20040;-64
2021/06/15 12:06:08;;;;;;;5.25;3.38;;;25.70;56.60;;;;;;3574774;40;20074;-64
2021/06/15 12:08:36;;;;;;;6.65;3.63;;;25.80;56.80;;;;;;3579046;40;20046;-64
2021/06/15 12:11:04;;;;;;;5.38;3.22;;;25.80;56.60;;;;;;3578285;40;20118;-64
2021/06/15 12:13:30;;;;;;;6.22;3.30;;;25.80;56.30;;;;;;3579258;40;20029;-64
2021/06/15 12:16:05;;;;;;;10.43;3.50;;;25.90;57.50;;;;;;3577511;40;20421;-63
2021/06/15 12:18:46;;;;;;;5.07;4.00;;;26.00;56.70;;;;;;3579749;40;20036;-63
2021/06/15 12:21:13;;;;;;;5.97;3.38;;;26.10;55.60;;;;;;3579012;40;20742;-63
2021/06/15 12:23:57;;;;;;;4.93;3.63;;;26.10;56.20;;;;;;3579958;40;20047;-63
2021/06/15 12:26:28;;;;;;;8.50;3.72;;;26.20;56.30;;;;;;3572061;40;20064;-63
2021/06/15 12:28:57;;;;;;;5.28;3.45;;;26.30;56.00;;;;;;3579717;40;20090;-63
2021/06/15 12:31:27;;;;;;;5.68;3.42;;;26.20;56.30;;;;;;3579485;40;20402;-62
2021/06/15 12:34:04;;;;;;;6.00;4.03;;;26.30;56.20;;;;;;3568676;40;20032;-63
2021/06/15 12:36:35;;;;;;;9.43;4.15;;;26.40;55.20;;;;;;3573151;40;20029;-64
2021/06/15 12:39:12;;;;;;;5.65;3.78;;;26.40;55.00;;;;;;3577761;40;20037;-63
2021/06/15 12:41:40;;;;;;;8.77;3.95;;;26.50;55.20;;;;;;3577986;40;20670;-63
2021/06/15 12:44:07;;;;;;;8.23;3.35;;;26.60;53.90;;;;;;3578156;40;20385;-63
2021/06/15 12:46:35;;;;;;;6.13;3.70;;;26.70;54.40;;;;;;3573240;40;20036;-63
2021/06/15 12:49:05;;;;;;;6.00;3.47;;;26.70;54.10;;;;;;3578510;40;20049;-63
2021/06/15 12:51:44;;;;;;;5.47;3.33;;;26.70;54.70;;;;;;3569378;40;20784;-63
2021/06/15 12:54:18;;;;;;;9.20;4.28;;;26.70;54.70;;;;;;3575544;40;20052;-63
2021/06/15 12:56:53;;;;;;;5.53;3.88;;;26.70;54.40;;;;;;3578169;40;20048;-63
2021/06/15 12:59:19;;;;;;;6.10;3.92;;;26.70;54.10;;;;;;3578165;40;20029;-63
2021/06/15 13:01:44;;;;;;;5.30;3.47;;;26.70;53.90;;;;;;3577668;40;20158;-63
2021/06/15 13:04:26;;;;;;;6.25;4.00;;;26.70;53.90;;;;;;3575907;40;20625;-63
2021/06/15 13:06:54;;;;;;;8.48;3.75;;;26.70;53.70;;;;;;3576791;40;20029;-63
2021/06/15 13:09:24;;;;;;;8.35;3.42;;;26.80;53.40;;;;;;3568826;40;20040;-63